createdAt,value
2019-02-12T00:00:25.350Z,97676.63
2019-02-12T00:05:43.915Z,97666.58
2019-02-12T00:11:03.095Z,97687.62
2019-02-12T00:16:22.280Z,97694.91
2019-02-12T00:21:40.838Z,97692.79
2019-02-12T00:26:59.404Z,97701.58
2019-02-12T00:32:18.074Z,97700.64
2019-02-12T00:37:36.954Z,97697.11
2019-02-12T00:42:55.204Z,97693.55
2019-02-12T00:48:14.590Z,97694.92
2019-02-12T00:53:34.385Z,97696.23
2019-02-12T00:58:54.465Z,97694.34
2019-02-12T01:04:12.850Z,97718.15
2019-02-12T01:09:31.420Z,97712.98
2019-02-12T01:14:50.464Z,97719.09
2019-02-12T01:20:10.903Z,97722.92
2019-02-12T01:25:30.179Z,97721.37
2019-02-12T01:30:49.263Z,97741.50
2019-02-12T01:36:07.930Z,97737.34
2019-02-12T01:41:26.288Z,97747.87
2019-02-12T01:46:44.750Z,97755.97
2019-02-12T01:52:03.464Z,97752.20
2019-02-12T01:57:22.920Z,97750.65
2019-02-12T02:02:41.066Z,97744.73
2019-02-12T02:07:59.731Z,97765.70
2019-02-12T02:13:19.471Z,97762.12
2019-02-12T02:18:39.121Z,97760.18
2019-02-12T02:23:57.790Z,97765.31
2019-02-12T02:29:16.966Z,97786.66
2019-02-12T02:34:35.736Z,97787.66
2019-02-12T02:39:53.898Z,97779.66
2019-02-12T02:45:13.461Z,97796.06
2019-02-12T02:50:32.154Z,97802.23
2019-02-12T02:55:50.728Z,97826.52
2019-02-12T03:01:09.802Z,97817.27
2019-02-12T03:06:28.066Z,97815.53
2019-02-12T03:11:47.475Z,97819.87
2019-02-12T03:17:06.211Z,97824.95
2019-02-12T03:22:25.905Z,97820.78
2019-02-12T03:27:43.958Z,97802.24
2019-02-12T03:33:03.498Z,97798.27
2019-02-12T03:38:22.421Z,97808.80
2019-02-12T03:43:43.957Z,97806.38
2019-02-12T03:49:02.930Z,97804.08
2019-02-12T03:54:21.296Z,97813.67
2019-02-12T03:59:39.756Z,97832.59
2019-02-12T04:04:58.326Z,97835.84
2019-02-12T04:10:16.623Z,97849.23
2019-02-12T04:15:35.351Z,97851.91
2019-02-12T04:20:54.942Z,97838.16
2019-02-12T04:26:13.814Z,97842.59
2019-02-12T04:31:32.383Z,97869.51
2019-02-12T04:36:50.945Z,97875.23
2019-02-12T04:42:09.816Z,97880.25
2019-02-12T04:47:29.408Z,97901.28
2019-02-12T04:52:48.285Z,97890.65
2019-02-12T04:58:07.270Z,97910.23
2019-02-12T05:03:26.945Z,97905.25
2019-02-12T05:09:03.746Z,97933.28
2019-02-12T05:14:22.466Z,97930.80
2019-02-12T05:19:41.795Z,97940.31
2019-02-12T05:25:01.392Z,97960.16
2019-02-12T05:30:20.877Z,97952.13
2019-02-12T05:35:39.233Z,97964.88
2019-02-12T05:40:57.906Z,97968.74
2019-02-12T05:46:16.056Z,97946.41
2019-02-12T05:51:34.505Z,97965.39
2019-02-12T05:56:53.389Z,97989.91
2019-02-12T06:02:12.471Z,98002.64
2019-02-12T06:07:31.245Z,98004.98
2019-02-12T06:12:50.320Z,98023.97
2019-02-12T06:18:08.376Z,98034.62
2019-02-12T06:23:27.758Z,98028.08
2019-02-12T06:28:46.839Z,98037.02
2019-02-12T06:34:05.411Z,98050.66
2019-02-12T06:39:23.972Z,98053.23
2019-02-12T06:44:42.942Z,98043.79
2019-02-12T06:50:01.409Z,98069.43
2019-02-12T06:55:20.281Z,98067.56
2019-02-12T07:00:38.753Z,98068.62
2019-02-12T07:06:03.256Z,98069.30
2019-02-12T07:11:43.419Z,98091.24
2019-02-12T07:17:33.324Z,98095.09
2019-02-12T07:22:57.010Z,98098.96
2019-02-12T07:28:19.055Z,98104.77
2019-02-12T07:34:06.914Z,98095.81
2019-02-12T07:39:43.405Z,98110.86
2019-02-12T07:45:10.774Z,98117.90
2019-02-12T07:50:44.383Z,98122.67
2019-02-12T07:56:19.742Z,98111.23
2019-02-12T08:01:53.057Z,98123.27
2019-02-12T08:07:16.025Z,98146.64
2019-02-12T08:12:56.920Z,98154.55
2019-02-12T08:18:34.221Z,98168.81
2019-02-12T08:24:07.020Z,98158.11
2019-02-12T08:29:55.689Z,98165.36
2019-02-12T08:35:22.864Z,98161.77
2019-02-12T08:41:06.405Z,98170.30
2019-02-12T08:47:01.960Z,98181.34
2019-02-12T08:52:29.724Z,98177.06
2019-02-12T08:57:55.877Z,98163.16
2019-02-12T09:03:33.275Z,98169.22
2019-02-12T09:08:57.166Z,98204.59
2019-02-12T09:14:18.799Z,98187.22
2019-02-12T09:20:05.939Z,98199.55
2019-02-12T09:25:43.758Z,98220.66
2019-02-12T09:31:22.904Z,98200.13
2019-02-12T09:37:03.590Z,98195.36
2019-02-12T09:42:27.683Z,98198.11
2019-02-12T09:48:04.169Z,98213.94
2019-02-12T09:53:40.755Z,98214.83
2019-02-12T09:59:12.027Z,98226.61
2019-02-12T10:04:36.318Z,98233.72
2019-02-12T10:10:17.822Z,98236.88
2019-02-12T10:15:50.007Z,98266.84
2019-02-12T10:21:18.813Z,98269.27
2019-02-12T10:26:37.836Z,98275.48
2019-02-12T10:31:55.454Z,98277.89
2019-02-12T10:37:14.617Z,98274.66
2019-02-12T10:42:33.699Z,98275.83
2019-02-12T10:47:51.955Z,98279.51
2019-02-12T10:53:11.751Z,98260.46
2019-02-12T10:58:30.829Z,98258.93
2019-02-12T11:03:49.296Z,98274.38
2019-02-12T11:09:07.035Z,98262.82
2019-02-12T11:14:25.300Z,98245.72
2019-02-12T11:19:43.971Z,98258.30
2019-02-12T11:25:02.428Z,98254.91
2019-02-12T11:30:21.915Z,98253.23
2019-02-12T11:35:40.797Z,98270.91
2019-02-12T11:40:59.055Z,98264.73
2019-02-12T11:46:17.815Z,98248.83
2019-02-12T11:51:36.383Z,98253.13
2019-02-12T11:56:55.254Z,98253.80
2019-02-12T12:02:13.413Z,98274.45
2019-02-12T12:07:32.282Z,98242.81
2019-02-12T12:12:51.260Z,98252.83
2019-02-12T12:18:10.849Z,98269.38
2019-02-12T12:23:29.004Z,98234.88
2019-02-12T12:28:48.184Z,98236.77
2019-02-12T12:34:06.140Z,98261.30
2019-02-12T12:39:24.468Z,98266.53
2019-02-12T12:44:43.175Z,98256.30
2019-02-12T12:50:02.507Z,98254.70
2019-02-12T12:55:20.910Z,98255.12
2019-02-12T13:00:39.072Z,98263.20
2019-02-12T13:05:58.660Z,98244.44
2019-02-12T13:11:17.944Z,98268.57
2019-02-12T13:16:36.465Z,98276.77
2019-02-12T13:21:55.793Z,98298.98
2019-02-12T13:27:15.792Z,98307.42
2019-02-12T13:32:34.563Z,98302.45
2019-02-12T13:37:53.127Z,98303.56
2019-02-12T13:43:11.896Z,98329.08
2019-02-12T13:48:31.190Z,98316.09
2019-02-12T13:53:49.129Z,98316.62
2019-02-12T13:59:09.748Z,98327.53
2019-02-12T14:04:27.903Z,98338.53
2019-02-12T14:09:47.455Z,98332.19
2019-02-12T14:15:05.958Z,98340.45
2019-02-12T15:18:41.089Z,98380.56
2019-02-12T15:23:59.014Z,98381.31
2019-02-12T15:29:17.481Z,98394.92
2019-02-12T15:34:36.419Z,98413.26
2019-02-12T15:39:55.551Z,98413.26
2019-02-12T15:50:32.131Z,98426.62
2019-02-12T15:55:51.557Z,98441.28
2019-02-12T16:01:08.551Z,98424.41
2019-02-12T16:06:26.561Z,98432.77
2019-02-12T16:11:44.371Z,98443.42
2019-02-12T16:17:02.333Z,98454.77
2019-02-12T16:22:20.890Z,98472.23
2019-02-12T16:27:38.950Z,98495.23
2019-02-12T16:32:57.282Z,98487.09
2019-02-12T16:38:14.771Z,98498.45
2019-02-12T16:43:32.935Z,98505.30
2019-02-12T16:48:51.692Z,98519.89
2019-02-12T16:54:10.034Z,98528.94
2019-02-12T16:59:28.283Z,98543.90
2019-02-12T17:04:47.184Z,98564.45
2019-02-12T17:10:05.433Z,98557.59
2019-02-12T17:15:24.233Z,98575.61
2019-02-12T17:20:42.646Z,98605.95
2019-02-12T17:26:00.350Z,98616.96
2019-02-12T17:31:18.647Z,98611.59
2019-02-12T17:36:36.434Z,98632.20
2019-02-12T17:41:54.254Z,98635.48
2019-02-12T17:47:12.796Z,98640.62
2019-02-12T17:52:30.457Z,98647.43
2019-02-12T17:57:48.751Z,98653.45
2019-02-12T18:03:07.373Z,98656.03
2019-02-12T18:08:26.412Z,98652.16
2019-02-12T18:13:44.322Z,98662.31
2019-02-12T18:19:01.934Z,98671.69
2019-02-12T18:24:20.228Z,98667.91
2019-02-12T18:29:39.226Z,98672.05
2019-02-12T18:34:57.723Z,98673.97
2019-02-12T18:40:35.895Z,98667.95
2019-02-12T18:45:54.555Z,98672.69
2019-02-12T18:51:13.465Z,98684.27
2019-02-12T18:56:31.613Z,98671.47
2019-02-12T19:01:50.703Z,98680.95
2019-02-12T19:07:09.154Z,98672.05
2019-02-12T19:12:27.492Z,98686.18
2019-02-12T19:17:47.833Z,98693.34
2019-02-12T19:23:05.964Z,98707.19
2019-02-12T19:28:24.483Z,98714.28
2019-02-12T19:33:43.133Z,98710.85
2019-02-12T19:39:09.411Z,98725.33
2019-02-12T19:44:27.552Z,98728.69
2019-02-12T19:49:50.687Z,98744.89
2019-02-12T19:55:08.993Z,98740.54
2019-02-12T20:00:27.230Z,98748.22
2019-02-12T20:05:45.485Z,98751.37
2019-02-12T20:11:05.672Z,98750.70
2019-02-12T20:16:24.098Z,98756.53
2019-02-12T20:21:44.074Z,98768.57
2019-02-12T20:27:06.673Z,98773.37
2019-02-12T20:32:20.391Z,98778.88
2019-02-12T20:37:40.950Z,98784.54
2019-02-12T20:42:58.883Z,98788.34
2019-02-12T20:48:16.916Z,98797.06
2019-02-12T20:53:38.284Z,98800.69
2019-02-12T20:58:57.805Z,98799.53
2019-02-12T21:04:15.772Z,98800.94
2019-02-12T21:09:33.713Z,98807.55
2019-02-12T21:14:52.578Z,98814.45
2019-02-12T21:20:10.656Z,98829.30
2019-02-12T21:25:27.806Z,98817.73
2019-02-12T21:30:45.898Z,98816.23
2019-02-12T21:36:04.234Z,98861.42
2019-02-12T21:41:22.978Z,98826.22
2019-02-12T21:46:41.355Z,98829.11
2019-02-12T21:52:00.422Z,98835.87
2019-02-12T21:57:18.654Z,98825.79
2019-02-12T22:02:36.365Z,98833.77
2019-02-12T22:07:54.973Z,98830.77
2019-02-12T22:13:13.213Z,98840.95
2019-02-12T22:18:30.632Z,98831.50
2019-02-12T22:23:49.307Z,98822.52
2019-02-12T22:29:08.429Z,98835.64
2019-02-12T22:34:26.518Z,98824.50
2019-02-12T22:39:44.767Z,98814.11
2019-02-12T22:45:02.066Z,98812.60
2019-02-12T22:50:19.194Z,98811.83
2019-02-12T22:55:36.720Z,98820.67
2019-02-12T23:01:00.846Z,98816.72
2019-02-12T23:06:19.207Z,98825.88
2019-02-12T23:11:37.681Z,98830.51
2019-02-12T23:16:55.012Z,98839.82
2019-02-12T23:22:13.119Z,98865.19
2019-02-12T23:27:30.592Z,98824.67
2019-02-12T23:32:49.185Z,98824.52
2019-02-12T23:38:06.265Z,98833.09
2019-02-12T23:43:24.038Z,98823.81
2019-02-12T23:48:42.208Z,98835.94
2019-02-12T23:54:00.390Z,98830.98
2019-02-12T23:59:18.043Z,98827.29
